Time;durP1;ratioP1;P1;durP2;ratioP2;P2;SDS_P1;SDS_P2;PMS_P1;PMS_P2;Temp;Humidity;BMP_temperature;BMP_pressure;BME280_temperature;BME280_humidity;BME280_pressure;Samples;Min_cycle;Max_cycle;Signal;HPM_P1;HPM_P2
2022/09/13 00:00:42;;;;;;;4.07;1.27;;;18.30;99.90;;;;;;5014051;28;20026;-74
2022/09/13 00:03:09;;;;;;;2.00;1.23;;;18.20;99.90;;;;;;5014032;28;20045;-76
2022/09/13 00:05:35;;;;;;;2.90;1.23;;;18.20;99.90;;;;;;5013897;28;20030;-76
2022/09/13 00:08:01;;;;;;;3.05;1.77;;;18.20;99.90;;;;;;4996341;28;20026;-76
2022/09/13 00:10:27;;;;;;;1.63;1.35;;;18.20;99.90;;;;;;5014232;28;20061;-76
2022/09/13 00:12:53;;;;;;;5.00;2.50;;;18.20;99.90;;;;;;5014221;28;20033;-76
2022/09/13 00:15:19;;;;;;;3.17;1.33;;;18.20;99.90;;;;;;4996279;28;20034;-76
2022/09/13 00:17:45;;;;;;;2.67;1.50;;;18.20;99.90;;;;;;4996265;28;20109;-76
2022/09/13 00:20:11;;;;;;;7.85;3.15;;;18.20;99.90;;;;;;5013359;28;20033;-76
2022/09/13 00:22:37;;;;;;;3.83;1.25;;;18.10;99.90;;;;;;4996065;28;20022;-76
2022/09/13 00:25:04;;;;;;;1.85;1.13;;;18.20;99.90;;;;;;5013500;28;20034;-76
2022/09/13 00:27:32;;;;;;;4.13;1.35;;;18.10;99.90;;;;;;5013735;28;20018;-76
2022/09/13 00:29:57;;;;;;;2.30;1.17;;;18.10;99.90;;;;;;5013787;28;20026;-76
2022/09/13 00:32:23;;;;;;;2.00;1.50;;;18.10;99.90;;;;;;5013990;28;20264;-76
2022/09/13 00:34:48;;;;;;;6.75;1.92;;;18.20;99.90;;;;;;5013735;28;20036;-76
2022/09/13 00:37:14;;;;;;;5.45;1.52;;;18.10;99.90;;;;;;5013650;28;20113;-76
2022/09/13 00:39:39;;;;;;;6.07;1.65;;;18.10;99.90;;;;;;5013846;28;20030;-76
2022/09/13 00:42:07;;;;;;;3.03;1.83;;;18.10;99.90;;;;;;5013504;28;20394;-75
2022/09/13 00:44:57;;;;;;;6.10;2.03;;;18.00;99.90;;;;;;5013545;28;20025;-75
2022/09/13 00:47:44;;;;;;;2.83;1.85;;;18.00;99.90;;;;;;5013797;28;20746;-75
2022/09/13 00:50:17;;;;;;;4.38;2.20;;;18.00;99.90;;;;;;5013642;28;20046;-76
2022/09/13 00:52:45;;;;;;;5.18;2.05;;;18.00;99.90;;;;;;5013825;28;20018;-75
2022/09/13 00:55:18;;;;;;;4.28;1.45;;;18.00;99.90;;;;;;5013650;28;20018;-75
2022/09/13 00:57:44;;;;;;;5.93;1.98;;;17.90;99.90;;;;;;5013391;28;20025;-75
2022/09/13 01:00:13;;;;;;;6.20;1.77;;;17.90;99.90;;;;;;4995916;28;20121;-75
2022/09/13 01:02:40;;;;;;;;;;;17.90;99.90;;;;;;5013729;28;20111;-76
2022/09/13 01:05:07;;;;;;;4.90;1.55;;;17.80;99.90;;;;;;5013195;28;19965;-76
2022/09/13 01:07:33;;;;;;;7.20;1.77;;;17.80;99.90;;;;;;5013383;28;20030;-75
2022/09/13 01:10:01;;;;;;;1.75;1.27;;;17.80;99.90;;;;;;5013530;28;20022;-75
2022/09/13 01:12:55;;;;;;;4.20;1.77;;;17.80;99.90;;;;;;5013179;28;20022;-75
2022/09/13 01:15:21;;;;;;;4.15;2.25;;;17.80;99.90;;;;;;5013085;28;20037;-75
2022/09/13 01:17:48;;;;;;;3.20;2.08;;;17.70;99.90;;;;;;4995582;28;20037;-75
2022/09/13 01:20:14;;;;;;;4.35;2.08;;;17.70;99.90;;;;;;4995703;28;20054;-75
2022/09/13 01:23:15;;;;;;;4.53;1.40;;;17.70;99.90;;;;;;5013212;28;20058;-75
2022/09/13 01:25:49;;;;;;;4.47;1.65;;;17.70;99.90;;;;;;5013059;28;20026;-75
2022/09/13 01:28:45;;;;;;;2.75;1.80;;;17.70;99.90;;;;;;5013106;28;20030;-74
2022/09/13 01:31:19;;;;;;;6.78;2.35;;;17.70;99.90;;;;;;5013130;28;20053;-75
2022/09/13 01:34:11;;;;;;;4.47;1.90;;;17.70;99.90;;;;;;5015797;28;20033;-75
2022/09/13 01:36:56;;;;;;;5.50;1.65;;;18.20;99.90;;;;;;5016522;28;20518;-75
2022/09/13 01:39:31;;;;;;;3.97;2.58;;;17.60;99.90;;;;;;4999073;28;20018;-74
2022/09/13 01:42:27;;;;;;;4.68;2.28;;;17.60;99.90;;;;;;5016770;28;20471;-72
2022/09/13 01:45:37;;;;;;;2.65;1.63;;;17.60;99.90;;;;;;5016761;28;20386;-72
2022/09/13 01:48:15;;;;;;;4.97;2.38;;;17.60;99.90;;;;;;4980361;28;20034;-72
2022/09/13 01:51:05;;;;;;;7.20;3.45;;;17.60;99.90;;;;;;5017083;28;20029;-72
2022/09/13 01:54:08;;;;;;;5.60;3.03;;;17.60;99.90;;;;;;5016640;28;20088;-72
2022/09/13 01:56:42;;;;;;;4.82;2.92;;;17.60;99.90;;;;;;5006361;28;20034;-72
2022/09/13 01:59:21;;;;;;;7.80;3.58;;;17.50;99.90;;;;;;5016284;28;20022;-72
2022/09/13 02:02:00;;;;;;;8.48;4.28;;;17.50;99.90;;;;;;5016491;28;20395;-72
2022/09/13 02:04:35;;;;;;;10.70;5.00;;;17.50;99.90;;;;;;5016311;28;20076;-72
2022/09/13 02:07:08;;;;;;;10.48;4.13;;;17.50;99.90;;;;;;5016480;28;20080;-71
2022/09/13 02:09:38;;;;;;;7.13;4.63;;;17.50;99.90;;;;;;5015980;28;20029;-72
2022/09/13 02:12:13;;;;;;;8.80;5.10;;;17.50;99.90;;;;;;5016655;28;20022;-72
2022/09/13 02:14:43;;;;;;;11.48;5.20;;;17.50;99.90;;;;;;5016582;28;20037;-72
2022/09/13 02:17:17;;;;;;;10.70;4.70;;;17.50;99.90;;;;;;5016056;28;20077;-72
2022/09/13 02:19:47;;;;;;;12.73;5.97;;;17.50;99.90;;;;;;5015798;28;20092;-72
2022/09/13 02:22:18;;;;;;;12.75;5.07;;;17.50;99.90;;;;;;5015830;28;20490;-72
2022/09/13 02:24:49;;;;;;;9.52;5.10;;;17.50;99.90;;;;;;5015888;28;20018;-72
2022/09/13 02:27:22;;;;;;;9.60;5.47;;;17.50;99.90;;;;;;5015913;28;20075;-72
2022/09/13 02:29:52;;;;;;;10.60;5.10;;;17.50;99.90;;;;;;5015764;28;20029;-72
2022/09/13 02:32:28;;;;;;;9.38;4.95;;;17.40;99.90;;;;;;5015878;28;20490;-72
2022/09/13 02:35:00;;;;;;;8.70;4.72;;;17.50;99.90;;;;;;4997977;28;20030;-72
2022/09/13 02:37:28;;;;;;;8.48;4.53;;;17.40;99.90;;;;;;5015898;28;20045;-72
2022/09/13 02:40:00;;;;;;;8.02;4.45;;;17.40;99.90;;;;;;5015522;28;20049;-72
2022/09/13 02:42:39;;;;;;;8.93;5.28;;;17.40;99.90;;;;;;5016005;28;20079;-72
2022/09/13 02:45:06;;;;;;;11.57;5.20;;;17.40;99.90;;;;;;5014934;28;20426;-72
2022/09/13 02:47:40;;;;;;;10.30;5.38;;;17.40;99.90;;;;;;5015907;28;20025;-72
2022/09/13 02:50:43;;;;;;;9.68;5.03;;;17.40;99.90;;;;;;5015371;28;20479;-73
2022/09/13 02:53:33;;;;;;;12.73;5.75;;;17.40;99.90;;;;;;5015707;28;20057;-72
2022/09/13 02:56:07;;;;;;;10.68;5.95;;;17.40;99.90;;;;;;5015323;28;20048;-72
2022/09/13 02:58:43;;;;;;;10.30;5.57;;;17.30;99.90;;;;;;5015487;28;20061;-72
2022/09/13 03:01:09;;;;;;;10.65;5.40;;;17.40;99.90;;;;;;5015156;28;20115;-72
2022/09/13 03:03:35;;;;;;;14.27;6.30;;;17.30;99.90;;;;;;5015136;28;20186;-72
2022/09/13 03:06:01;;;;;;;14.90;6.93;;;17.30;99.90;;;;;;5015091;28;20104;-72
2022/09/13 03:08:28;;;;;;;12.85;5.65;;;17.30;99.90;;;;;;5014900;28;20018;-72
2022/09/13 03:11:20;;;;;;;12.23;6.55;;;17.30;99.90;;;;;;5014808;28;20034;-72
2022/09/13 03:14:04;;;;;;;11.18;6.22;;;17.30;99.90;;;;;;5014949;28;20052;-72
2022/09/13 03:17:04;;;;;;;12.90;6.13;;;17.40;99.90;;;;;;5014790;28;20022;-72
2022/09/13 03:19:51;;;;;;;11.13;6.57;;;17.30;99.90;;;;;;5014894;28;20021;-72
2022/09/13 03:22:52;;;;;;;12.02;6.60;;;17.40;99.90;;;;;;5014884;28;20050;-72
2022/09/13 03:25:51;;;;;;;12.25;6.80;;;17.40;99.90;;;;;;4953858;29;20031;-72
2022/09/13 03:28:27;;;;;;;12.75;6.57;;;17.40;99.90;;;;;;5014920;28;20045;-72
2022/09/13 03:31:03;;;;;;;10.20;6.55;;;17.40;99.90;;;;;;5015103;28;20029;-72
2022/09/13 03:33:41;;;;;;;12.45;6.45;;;17.40;99.90;;;;;;4996895;28;20021;-71
2022/09/13 03:36:14;;;;;;;11.82;6.10;;;17.40;99.90;;;;;;5014397;28;20057;-72
2022/09/13 03:38:54;;;;;;;12.15;6.88;;;17.40;99.90;;;;;;5014582;28;20406;-72
2022/09/13 03:41:26;;;;;;;14.35;7.05;;;17.40;99.90;;;;;;5014649;28;20467;-72
2022/09/13 03:43:57;;;;;;;13.88;6.50;;;17.40;99.90;;;;;;5014424;28;20464;-72
2022/09/13 03:46:32;;;;;;;14.00;7.18;;;17.40;99.90;;;;;;5014115;28;20018;-72
2022/09/13 03:49:07;;;;;;;16.75;7.97;;;17.40;99.90;;;;;;5014170;28;20494;-72
2022/09/13 03:51:34;;;;;;;13.90;8.27;;;17.40;99.90;;;;;;5015056;28;20018;-74
2022/09/13 03:54:05;;;;;;;16.08;7.35;;;17.40;99.90;;;;;;5014146;28;20025;-72
2022/09/13 03:56:31;;;;;;;13.90;7.63;;;17.40;99.90;;;;;;5013346;28;20056;-72
2022/09/13 03:58:57;;;;;;;13.68;6.65;;;17.50;99.90;;;;;;4996183;28;20021;-73
2022/09/13 04:01:23;;;;;;;21.30;7.20;;;17.40;99.90;;;;;;5014409;28;20022;-72
2022/09/13 04:03:49;;;;;;;13.40;7.03;;;17.40;99.90;;;;;;5014147;28;20483;-73
2022/09/13 04:06:15;;;;;;;14.82;7.35;;;17.40;99.90;;;;;;5014314;28;20021;-71
2022/09/13 04:08:41;;;;;;;14.88;7.13;;;17.40;99.90;;;;;;5014036;28;20014;-72
2022/09/13 04:11:08;;;;;;;11.98;6.95;;;17.40;99.90;;;;;;5013947;28;20018;-72
2022/09/13 04:13:35;;;;;;;11.98;6.85;;;17.30;99.90;;;;;;5013568;28;20022;-72
2022/09/13 04:16:02;;;;;;;16.52;7.40;;;17.30;99.90;;;;;;5013981;28;20026;-73
2022/09/13 04:18:28;;;;;;;15.80;7.95;;;17.30;99.90;;;;;;5013951;28;20030;-72
2022/09/13 04:20:55;;;;;;;15.05;8.27;;;17.30;99.90;;;;;;5014106;28;20025;-72
2022/09/13 04:23:22;;;;;;;15.57;7.80;;;17.30;99.90;;;;;;5013462;28;20522;-72
2022/09/13 04:25:47;;;;;;;15.23;7.20;;;17.20;99.90;;;;;;5059523;23;20048;-72
2022/09/13 04:28:13;;;;;;;14.27;7.43;;;17.20;99.90;;;;;;5033793;28;20114;-73
2022/09/13 04:30:38;;;;;;;14.75;7.47;;;17.20;99.90;;;;;;5033579;28;20030;-73
2022/09/13 04:33:04;;;;;;;15.23;7.65;;;17.10;99.90;;;;;;5015677;28;20056;-72
2022/09/13 04:35:29;;;;;;;16.38;8.10;;;17.20;99.90;;;;;;5033463;28;20026;-72
2022/09/13 04:37:57;;;;;;;16.35;8.65;;;17.20;99.90;;;;;;5033523;28;20156;-72
2022/09/13 04:40:23;;;;;;;18.92;8.68;;;17.10;99.90;;;;;;5033774;28;20025;-73
2022/09/13 04:42:49;;;;;;;16.52;8.07;;;17.10;99.90;;;;;;5033901;28;20025;-72
2022/09/13 04:45:14;;;;;;;16.77;9.10;;;17.10;99.90;;;;;;5033306;28;20033;-72
2022/09/13 04:47:40;;;;;;;15.80;8.60;;;17.10;99.90;;;;;;5033896;28;20075;-73
2022/09/13 04:50:06;;;;;;;14.75;8.93;;;17.20;99.90;;;;;;5033287;28;20029;-72
2022/09/13 04:52:32;;;;;;;18.35;10.65;;;17.10;99.90;;;;;;5015423;28;20091;-72
2022/09/13 04:55:00;;;;;;;18.40;9.98;;;17.20;99.90;;;;;;5033094;28;20100;-72
2022/09/13 04:57:27;;;;;;;21.67;9.80;;;17.20;99.90;;;;;;5033794;28;20030;-71
2022/09/13 04:59:53;;;;;;;21.70;11.02;;;17.30;99.90;;;;;;5033403;28;20037;-72
2022/09/13 05:02:18;;;;;;;19.23;9.75;;;17.20;99.90;;;;;;5015457;28;20029;-72
2022/09/13 05:04:44;;;;;;;23.30;10.95;;;17.30;99.90;;;;;;5033084;28;20033;-73
2022/09/13 05:07:10;;;;;;;20.38;10.02;;;17.30;99.90;;;;;;5035044;28;20443;-72
2022/09/13 05:09:35;;;;;;;19.60;10.13;;;17.30;99.90;;;;;;5037702;28;20421;-72
2022/09/13 05:12:01;;;;;;;21.25;10.38;;;17.30;99.90;;;;;;5037208;28;20033;-72
2022/09/13 05:14:27;;;;;;;17.73;9.75;;;17.40;99.90;;;;;;5013661;23;20065;-72
2022/09/13 05:16:53;;;;;;;20.45;9.20;;;17.40;99.90;;;;;;5017591;28;20056;-71
2022/09/13 05:19:19;;;;;;;18.23;9.75;;;17.40;99.90;;;;;;5016919;28;20026;-71
2022/09/13 05:21:44;;;;;;;18.92;9.50;;;17.40;99.90;;;;;;4999304;28;20018;-71
2022/09/13 05:24:10;;;;;;;20.00;9.52;;;17.40;99.90;;;;;;5016698;28;20161;-71
2022/09/13 05:26:36;;;;;;;18.17;9.80;;;17.50;99.90;;;;;;5016642;28;20022;-71
2022/09/13 05:29:03;;;;;;;18.02;10.20;;;17.50;99.90;;;;;;5016904;28;20029;-70
2022/09/13 05:31:34;;;;;;;20.20;9.65;;;17.50;99.90;;;;;;5016572;28;20033;-72
2022/09/13 05:34:05;;;;;;;22.48;10.43;;;17.50;99.90;;;;;;5016623;28;20022;-71
2022/09/13 05:36:32;;;;;;;22.48;10.10;;;17.60;99.90;;;;;;5016716;28;20025;-71
2022/09/13 05:38:57;;;;;;;22.85;9.25;;;17.70;99.90;;;;;;5016499;28;20060;-71
2022/09/13 05:41:23;;;;;;;21.85;10.13;;;17.70;99.90;;;;;;5016344;28;20410;-71
2022/09/13 05:43:49;;;;;;;17.98;9.75;;;17.70;99.90;;;;;;5016601;28;20035;-71
2022/09/13 05:46:18;;;;;;;21.85;10.40;;;17.70;99.90;;;;;;5016438;28;20022;-71
2022/09/13 05:48:44;;;;;;;25.63;10.75;;;17.80;99.90;;;;;;5016899;28;20065;-71
2022/09/13 05:51:18;;;;;;;19.95;10.18;;;17.80;99.90;;;;;;5016380;28;20030;-71
2022/09/13 05:53:45;;;;;;;17.45;9.27;;;17.80;99.90;;;;;;5017004;28;20490;-71
2022/09/13 05:56:13;;;;;;;20.70;9.48;;;17.90;99.90;;;;;;5017091;28;20026;-71
2022/09/13 05:58:41;;;;;;;23.55;11.10;;;17.90;99.90;;;;;;5016379;28;20426;-72
2022/09/13 06:01:06;;;;;;;22.33;11.18;;;18.00;99.90;;;;;;5015852;28;20108;-72
2022/09/13 06:03:32;;;;;;;20.27;10.68;;;18.00;99.90;;;;;;5016380;28;20053;-72
2022/09/13 06:05:58;;;;;;;20.77;9.88;;;18.10;99.90;;;;;;5015981;28;20083;-71
2022/09/13 06:08:25;;;;;;;25.17;10.43;;;18.10;99.90;;;;;;4998580;28;20045;-71
2022/09/13 06:11:01;;;;;;;19.38;9.50;;;18.20;99.90;;;;;;5016234;28;20028;-71
2022/09/13 06:13:27;;;;;;;21.83;10.80;;;18.20;99.90;;;;;;5016001;28;20514;-71
2022/09/13 06:15:54;;;;;;;17.88;8.40;;;18.20;99.90;;;;;;5016058;28;20025;-71
2022/09/13 06:18:19;;;;;;;27.17;11.02;;;18.40;99.90;;;;;;5015491;28;20488;-71
2022/09/13 06:20:45;;;;;;;19.27;8.85;;;18.40;99.90;;;;;;5015896;28;20029;-71
2022/09/13 06:23:11;;;;;;;17.65;9.82;;;18.50;99.90;;;;;;5016360;28;20049;-71
2022/09/13 06:25:37;;;;;;;18.42;10.27;;;18.50;99.90;;;;;;5016007;28;20388;-71
2022/09/13 06:28:03;;;;;;;21.75;9.30;;;18.60;99.90;;;;;;5015701;28;20018;-71
2022/09/13 06:30:29;;;;;;;18.70;9.75;;;18.60;99.90;;;;;;5016272;28;20022;-71
2022/09/13 06:32:58;;;;;;;19.02;9.43;;;18.70;99.90;;;;;;4998225;28;20032;-71
2022/09/13 06:35:23;;;;;;;26.33;11.65;;;18.70;99.90;;;;;;5015496;28;20026;-71
2022/09/13 06:37:49;;;;;;;22.38;11.60;;;18.70;99.90;;;;;;4998202;28;20018;-71
2022/09/13 06:40:15;;;;;;;20.02;10.75;;;18.70;99.90;;;;;;4997991;28;20022;-72
2022/09/13 06:42:41;;;;;;;20.70;10.43;;;18.70;99.90;;;;;;5015474;28;20475;-72
2022/09/13 06:45:07;;;;;;;18.50;10.50;;;18.80;99.90;;;;;;5015318;28;20037;-72
2022/09/13 06:47:33;;;;;;;22.38;10.35;;;18.80;99.90;;;;;;5015115;28;20026;-72
2022/09/13 06:49:59;;;;;;;19.80;9.43;;;18.80;99.90;;;;;;4997744;28;20026;-72
2022/09/13 06:52:26;;;;;;;21.58;10.70;;;18.90;99.90;;;;;;4997607;28;20026;-71
2022/09/13 06:54:52;;;;;;;20.15;11.02;;;19.00;99.90;;;;;;5015041;28;20018;-71
2022/09/13 06:57:18;;;;;;;20.38;10.75;;;19.00;99.90;;;;;;4997647;28;20034;-71
2022/09/13 06:59:43;;;;;;;25.05;11.02;;;19.10;99.90;;;;;;5015141;28;20029;-73
2022/09/13 07:02:10;;;;;;;20.63;10.15;;;19.20;99.90;;;;;;5015065;28;20092;-71
2022/09/13 07:04:36;;;;;;;21.35;9.73;;;19.20;99.90;;;;;;5015358;28;20030;-70
2022/09/13 07:07:01;;;;;;;35.90;12.20;;;19.30;99.90;;;;;;4997311;28;20137;-72
2022/09/13 07:09:27;;;;;;;26.17;10.55;;;19.40;99.90;;;;;;5014934;28;20025;-71
2022/09/13 07:11:54;;;;;;;24.02;11.00;;;19.50;99.90;;;;;;5014934;28;20057;-71
2022/09/13 07:14:25;;;;;;;19.70;10.80;;;19.60;99.90;;;;;;5014685;28;20041;-72
2022/09/13 07:16:51;;;;;;;17.30;9.68;;;19.70;99.90;;;;;;5014793;28;20100;-73
2022/09/13 07:19:23;;;;;;;20.50;10.50;;;19.80;99.90;;;;;;5014653;28;20076;-72
2022/09/13 07:21:49;;;;;;;18.92;9.52;;;19.80;99.90;;;;;;5014797;28;20475;-72
2022/09/13 07:24:16;;;;;;;16.02;9.65;;;19.90;99.90;;;;;;5014677;28;20386;-73
2022/09/13 07:26:41;;;;;;;17.65;10.15;;;19.90;99.90;;;;;;5014455;28;20030;-72
2022/09/13 07:29:10;;;;;;;17.35;9.38;;;19.90;99.90;;;;;;4996859;28;20441;-72
2022/09/13 07:31:38;;;;;;;15.95;8.18;;;19.90;99.90;;;;;;4996091;28;20033;-72
2022/09/13 07:34:12;;;;;;;20.48;8.25;;;20.00;99.90;;;;;;5014699;28;20056;-72
2022/09/13 07:36:38;;;;;;;15.93;8.25;;;20.10;99.90;;;;;;5014449;28;20025;-71
2022/09/13 07:39:04;;;;;;;17.33;7.82;;;20.20;99.90;;;;;;5014582;28;20026;-71
2022/09/13 07:41:32;;;;;;;17.65;7.22;;;20.40;99.90;;;;;;4996712;28;20029;-72
2022/09/13 07:44:00;;;;;;;13.68;6.65;;;20.50;99.90;;;;;;5014402;28;20018;-72
2022/09/13 07:46:31;;;;;;;13.85;6.63;;;20.70;99.90;;;;;;5014241;28;20103;-72
2022/09/13 07:48:57;;;;;;;11.05;6.05;;;20.70;99.90;;;;;;5014533;28;20022;-72
2022/09/13 07:51:26;;;;;;;9.73;4.88;;;20.90;99.90;;;;;;5014526;28;20026;-72
2022/09/13 07:53:55;;;;;;;11.38;5.20;;;21.10;99.90;;;;;;5014015;28;20042;-72
2022/09/13 07:56:23;;;;;;;14.68;4.47;;;21.30;99.90;;;;;;4996144;28;20096;-72
2022/09/13 07:58:50;;;;;;;7.78;3.45;;;21.50;99.90;;;;;;5014105;28;20434;-72
2022/09/13 08:01:24;;;;;;;7.22;2.15;;;21.60;99.90;;;;;;5013905;28;20108;-75
2022/09/13 08:03:55;;;;;;;6.60;1.60;;;21.60;99.90;;;;;;5013932;28;20037;-75
2022/09/13 08:06:21;;;;;;;5.93;2.10;;;21.70;99.90;;;;;;5014159;28;20034;-75
2022/09/13 08:08:47;;;;;;;3.72;1.42;;;21.80;99.90;;;;;;4996160;28;20022;-75
2022/09/13 08:11:19;;;;;;;6.18;1.08;;;21.90;99.90;;;;;;4996176;28;20361;-75
2022/09/13 08:13:47;;;;;;;2.55;0.88;;;21.90;99.90;;;;;;5013934;28;20041;-74
2022/09/13 08:16:13;;;;;;;1.85;0.63;;;21.90;99.90;;;;;;4995977;28;20540;-74
2022/09/13 08:18:50;;;;;;;4.10;0.57;;;21.80;99.90;;;;;;5013833;28;20022;-75
2022/09/13 08:21:17;;;;;;;1.05;0.10;;;21.70;99.90;;;;;;5013718;28;20033;-75
2022/09/13 08:23:43;;;;;;;0.80;0.20;;;21.80;99.90;;;;;;5014047;28;20387;-75
2022/09/13 08:26:09;;;;;;;3.40;0.68;;;21.80;99.90;;;;;;4996428;28;20026;-71
2022/09/13 08:28:37;;;;;;;2.97;0.35;;;21.70;99.90;;;;;;5013976;28;20034;-72
2022/09/13 08:31:10;;;;;;;3.75;0.47;;;21.80;99.90;;;;;;4995638;28;20029;-72
2022/09/13 08:33:36;;;;;;;3.15;0.60;;;21.80;99.90;;;;;;4996385;28;20030;-71
2022/09/13 08:36:03;;;;;;;2.25;0.25;;;21.80;99.90;;;;;;5013284;28;20024;-71
2022/09/13 08:38:30;;;;;;;2.95;0.10;;;21.70;99.90;;;;;;5013469;28;20101;-72
2022/09/13 08:41:17;;;;;;;2.35;0.20;;;21.70;99.90;;;;;;5013434;28;20056;-72
2022/09/13 08:44:05;;;;;;;3.58;0.20;;;21.70;99.90;;;;;;5017476;28;20061;-72
2022/09/13 08:46:45;;;;;;;2.83;0.20;;;21.70;99.90;;;;;;4999725;28;20041;-72
2022/09/13 08:49:17;;;;;;;4.22;0.63;;;21.80;99.90;;;;;;5017458;28;20041;-72
2022/09/13 08:51:53;;;;;;;2.22;0.10;;;21.80;99.90;;;;;;5017323;28;20076;-72
2022/09/13 08:54:19;;;;;;;4.03;0.52;;;22.00;99.90;;;;;;5017155;28;20070;-72
2022/09/13 08:56:50;;;;;;;1.90;0.10;;;22.10;99.90;;;;;;5017297;28;20030;-72
2022/09/13 08:59:21;;;;;;;1.88;0.17;;;22.10;99.90;;;;;;5017194;28;20025;-72
2022/09/13 09:02:13;;;;;;;6.32;0.43;;;22.20;99.90;;;;;;5017293;28;20026;-72
2022/09/13 09:05:07;;;;;;;0.77;0.00;;;22.30;99.90;;;;;;5016942;28;20026;-72
2022/09/13 09:08:04;;;;;;;0.68;0.00;;;22.30;99.90;;;;;;5017347;28;20494;-72
2022/09/13 09:10:34;;;;;;;2.92;0.00;;;22.50;99.90;;;;;;4999796;28;20368;-72
2022/09/13 09:13:08;;;;;;;0.77;0.00;;;22.40;99.90;;;;;;5017496;28;20458;-72
2022/09/13 09:15:40;;;;;;;1.33;0.00;;;22.50;99.90;;;;;;5016736;28;20044;-72
2022/09/13 09:18:23;;;;;;;2.95;0.00;;;22.40;99.90;;;;;;5017355;28;20022;-72
2022/09/13 09:20:55;;;;;;;0.20;0.00;;;22.40;99.90;;;;;;5016761;28;20026;-73
2022/09/13 09:23:34;;;;;;;3.88;0.52;;;22.40;99.90;;;;;;5017352;28;20025;-72
2022/09/13 09:26:14;;;;;;;1.98;0.00;;;22.50;99.90;;;;;;4999014;28;20025;-72
2022/09/13 09:28:40;;;;;;;2.28;0.00;;;22.60;99.90;;;;;;5017707;28;20033;-71
2022/09/13 09:31:21;;;;;;;1.98;0.30;;;22.50;99.90;;;;;;5016672;28;20032;-72
2022/09/13 09:33:49;;;;;;;0.95;0.00;;;22.60;99.90;;;;;;5016528;28;20018;-72
2022/09/13 09:36:52;;;;;;;1.08;0.03;;;22.60;99.90;;;;;;4998787;28;20029;-72
2022/09/13 09:39:18;;;;;;;1.73;0.08;;;22.50;99.90;;;;;;5016529;28;20053;-72
2022/09/13 09:41:44;;;;;;;1.00;0.15;;;22.50;99.90;;;;;;5016451;28;20057;-72
2022/09/13 09:44:19;;;;;;;0.03;0.00;;;22.50;99.90;;;;;;5017333;28;20367;-72
2022/09/13 09:46:49;;;;;;;0.88;0.00;;;22.70;99.90;;;;;;5016241;28;20026;-73
2022/09/13 09:52:25;;;;;;;3.05;0.20;;;23.00;99.90;;;;;;5016601;28;20375;-72
2022/09/13 09:54:51;;;;;;;1.80;0.00;;;23.20;99.90;;;;;;5015199;28;20029;-72
2022/09/13 09:57:19;;;;;;;2.70;0.03;;;23.40;99.90;;;;;;5016101;28;20475;-72
2022/09/13 09:59:45;;;;;;;1.55;0.00;;;23.40;99.90;;;;;;5016313;28;20391;-71
2022/09/13 10:02:16;;;;;;;0.88;0.00;;;23.50;99.90;;;;;;5015994;28;20025;-72
2022/09/13 10:04:42;;;;;;;3.03;0.00;;;23.40;99.90;;;;;;5015938;28;20033;-71
2022/09/13 10:07:22;;;;;;;1.08;0.00;;;23.50;99.90;;;;;;5016152;28;20026;-71
2022/09/13 10:10:23;;;;;;;7.15;0.68;;;23.40;99.90;;;;;;5015968;28;20431;-72
2022/09/13 10:12:51;;;;;;;2.58;0.00;;;23.30;99.90;;;;;;5015670;28;20030;-72
2022/09/13 10:15:32;;;;;;;0.60;0.00;;;23.10;99.90;;;;;;5015833;28;20033;-72
2022/09/13 10:18:16;;;;;;;0.00;0.00;;;23.10;99.90;;;;;;4998163;28;20056;-72
2022/09/13 10:20:59;;;;;;;3.03;0.00;;;23.20;99.90;;;;;;5015782;28;20022;-73
2022/09/13 10:23:26;;;;;;;0.00;0.00;;;23.20;99.90;;;;;;4998207;28;20026;-73
2022/09/13 10:26:15;;;;;;;1.33;0.30;;;23.20;99.90;;;;;;4997938;28;20103;-73
2022/09/13 10:29:01;;;;;;;0.10;0.00;;;23.30;99.90;;;;;;5015549;28;20445;-73
2022/09/13 10:31:30;;;;;;;0.30;0.08;;;23.30;99.90;;;;;;5015753;28;20034;-73
2022/09/13 10:33:59;;;;;;;1.23;0.00;;;23.40;99.90;;;;;;5015371;28;20018;-73
2022/09/13 10:36:29;;;;;;;0.32;0.00;;;23.50;99.90;;;;;;5015328;28;20072;-73
2022/09/13 10:39:16;;;;;;;1.50;0.10;;;23.70;99.90;;;;;;4997836;28;20109;-73
2022/09/13 10:41:59;;;;;;;2.75;0.15;;;23.70;99.90;;;;;;5015523;28;20527;-72
2022/09/13 10:44:32;;;;;;;0.85;0.00;;;23.80;99.90;;;;;;5015400;28;20495;-73
2022/09/13 10:47:03;;;;;;;0.50;0.30;;;23.90;99.90;;;;;;5015220;28;20542;-72
2022/09/13 10:49:50;;;;;;;1.00;0.32;;;24.00;99.90;;;;;;4997628;28;20018;-72
2022/09/13 10:52:44;;;;;;;0.20;0.00;;;24.20;99.90;;;;;;5015386;28;20026;-72
2022/09/13 10:55:17;;;;;;;1.92;0.00;;;24.30;99.90;;;;;;4997401;28;20436;-72
2022/09/13 10:57:53;;;;;;;4.45;0.00;;;24.30;99.90;;;;;;4998038;28;20034;-72
2022/09/13 11:00:31;;;;;;;1.23;0.10;;;24.40;99.90;;;;;;5015167;28;20509;-73
2022/09/13 11:03:35;;;;;;;2.78;0.00;;;24.40;99.90;;;;;;5015082;28;20026;-73
2022/09/13 11:06:11;;;;;;;1.95;0.00;;;24.10;99.90;;;;;;4996219;28;20113;-72
2022/09/13 11:08:45;;;;;;;0.82;0.00;;;23.90;99.90;;;;;;5015308;28;20021;-72
2022/09/13 11:11:30;;;;;;;3.13;0.25;;;24.00;99.90;;;;;;5014695;28;20022;-72
2022/09/13 11:14:17;;;;;;;0.30;0.10;;;24.20;99.90;;;;;;5014891;28;20103;-72
2022/09/13 11:17:02;;;;;;;1.55;0.03;;;24.50;99.90;;;;;;4997121;28;20032;-72
2022/09/13 11:19:42;;;;;;;3.35;0.20;;;24.70;99.90;;;;;;5014983;28;20137;-72
2022/09/13 11:22:41;;;;;;;0.22;0.00;;;24.80;99.90;;;;;;5014727;28;20058;-72
2022/09/13 11:25:34;;;;;;;10.32;0.10;;;25.20;99.90;;;;;;5014597;28;20403;-72
2022/09/13 11:28:09;;;;;;;1.05;0.00;;;25.60;99.90;;;;;;5014961;28;20025;-72
2022/09/13 11:31:02;;;;;;;1.33;0.00;;;25.60;99.90;;;;;;5014555;28;20029;-72
2022/09/13 11:33:42;;;;;;;0.25;0.00;;;25.60;99.90;;;;;;5014524;28;20026;-72
2022/09/13 11:36:19;;;;;;;0.35;0.20;;;25.80;99.90;;;;;;5014651;28;20069;-72
2022/09/13 11:38:51;;;;;;;0.57;0.05;;;25.80;99.90;;;;;;5014441;28;20061;-72
2022/09/13 11:41:38;;;;;;;0.20;0.00;;;26.00;99.90;;;;;;5014354;28;20030;-72
2022/09/13 11:44:17;;;;;;;2.28;0.10;;;26.30;99.90;;;;;;5014671;28;20412;-73
2022/09/13 11:47:15;;;;;;;2.28;0.28;;;26.50;99.90;;;;;;5014493;28;20032;-73
2022/09/13 11:50:08;;;;;;;0.73;0.00;;;26.70;99.90;;;;;;4996689;28;20392;-73
2022/09/13 11:53:14;;;;;;;0.80;0.17;;;26.70;99.10;;;;;;5014430;28;20020;-72
2022/09/13 11:55:48;;;;;;;1.40;0.00;;;26.70;98.80;;;;;;4997449;28;20033;-72
2022/09/13 11:58:20;;;;;;;0.68;0.10;;;26.40;98.10;;;;;;5014353;28;20502;-72
2022/09/13 12:00:52;;;;;;;5.78;0.20;;;26.20;96.60;;;;;;5014478;28;20036;-73
2022/09/13 12:03:34;;;;;;;1.65;0.28;;;26.00;98.40;;;;;;5014205;28;20384;-73
2022/09/13 12:06:24;;;;;;;1.13;0.00;;;25.90;98.70;;;;;;5013851;28;20041;-72
2022/09/13 12:09:06;;;;;;;0.32;0.00;;;26.10;98.80;;;;;;5014651;28;20087;-73
2022/09/13 12:11:41;;;;;;;0.35;0.00;;;26.40;98.10;;;;;;5013924;28;20383;-72
2022/09/13 12:14:13;;;;;;;0.10;0.00;;;26.50;97.90;;;;;;4996189;28;20037;-72
2022/09/13 12:16:49;;;;;;;4.68;0.00;;;26.70;97.80;;;;;;5013462;28;20018;-72
2022/09/13 12:19:44;;;;;;;2.05;0.00;;;26.90;97.70;;;;;;5013690;28;20018;-72
2022/09/13 12:22:11;;;;;;;1.65;0.00;;;27.20;96.80;;;;;;5013605;28;20022;-73
2022/09/13 12:24:49;;;;;;;1.45;0.00;;;27.30;95.70;;;;;;5013414;28;20033;-73
2022/09/13 12:27:25;;;;;;;1.52;0.00;;;27.40;96.70;;;;;;5013699;28;20037;-72
2022/09/13 12:29:55;;;;;;;2.08;0.00;;;27.60;96.10;;;;;;5014515;28;20026;-72
2022/09/13 12:32:22;;;;;;;1.00;0.00;;;27.60;95.00;;;;;;4995918;28;20492;-72
2022/09/13 12:34:50;;;;;;;0.70;0.00;;;27.80;93.80;;;;;;5013669;28;20122;-72
2022/09/13 12:37:22;;;;;;;;;;;27.80;94.10;;;;;;5013905;28;20030;-72
2022/09/13 12:39:59;;;;;;;1.35;0.17;;;27.70;93.10;;;;;;5013575;28;19956;-72
2022/09/13 12:43:00;;;;;;;1.95;0.10;;;27.90;93.00;;;;;;5013683;28;20526;-72
2022/09/13 12:45:38;;;;;;;1.52;0.00;;;27.90;94.20;;;;;;5013492;28;20037;-73
2022/09/13 12:48:30;;;;;;;3.47;0.00;;;28.30;94.70;;;;;;5013585;28;20479;-73
2022/09/13 12:51:13;;;;;;;1.55;0.00;;;28.40;93.00;;;;;;5013985;28;20084;-73
2022/09/13 12:53:53;;;;;;;0.00;0.00;;;28.60;91.90;;;;;;5013898;28;20014;-73
2022/09/13 12:56:49;;;;;;;1.63;0.35;;;28.70;91.60;;;;;;5013870;28;20030;-73
2022/09/13 12:59:27;;;;;;;0.00;0.00;;;28.50;86.20;;;;;;5013969;28;20030;-73
2022/09/13 13:01:53;;;;;;;1.70;0.00;;;28.10;87.20;;;;;;5013369;28;20026;-73
2022/09/13 13:04:26;;;;;;;1.73;0.00;;;27.80;87.90;;;;;;5013250;28;20030;-73
2022/09/13 13:06:56;;;;;;;1.13;0.00;;;27.50;90.50;;;;;;5013235;28;20387;-73
2022/09/13 13:09:41;;;;;;;1.67;0.05;;;27.60;91.00;;;;;;5013150;28;20152;-73
2022/09/13 13:12:38;;;;;;;0.63;0.00;;;27.90;91.50;;;;;;5013033;28;20574;-73
2022/09/13 13:15:25;;;;;;;2.97;0.15;;;28.00;86.70;;;;;;4987939;28;20202;-73
2022/09/13 13:17:55;;;;;;;1.90;0.00;;;27.90;86.70;;;;;;5012975;28;20071;-73